Hawk — LAGF7 — position and weather

sailwx.info

Track history (hours):
 
Tides and Currents Weather Stations Pressure Air Temp Water Temp Dewpoint Dewpoint Depression Visibility Wind Speed Wind Dir Waves Ship Positions

Hawk

Last reported at 2018-Apr-22 09:22 UTC. Time now 2018-Apr-22 16:29 UTC.
Position N 46°16' W 007°33'.

Length 223 m; draft 10.2 m.

Type: Cargo ship. MMSI: 259848000.

Date/timePositionNaut miles runAvg speedWind from/ knotsBaromVisibWave heightAir tempDewpointWater temp
2018-Apr-22 09:22N 46°16' W 007°33'41610.2
2018-Apr-20 16:43N 39°32' W 009°51'210.1
2018-Apr-20 16:31N 39°30' W 009°51'510.0
2018-Apr-20 16:00N 39°25' W 009°51'510.4
2018-Apr-20 15:31N 39°20' W 009°51'510.4
2018-Apr-20 15:00N 39°14' W 009°51'510.4
2018-Apr-20 14:30N 39°09' W 009°51'510.2
2018-Apr-20 14:00N 39°04' W 009°51'510.3
2018-Apr-20 13:30N 38°59' W 009°52'510.4
2018-Apr-20 13:01N 38°54' W 009°52'510.1
2018-Apr-20 12:30N 38°49' W 009°52'510.0
2018-Apr-20 12:00N 38°44' W 009°52'5 9.9
2018-Apr-20 11:30N 38°39' W 009°50'5 9.7
2018-Apr-20 11:00N 38°38' W 009°45'510.0
2018-Apr-20 10:30N 38°37' W 009°38'510.0
2018-Apr-20 10:00N 38°37' W 009°32'5 9.8
2018-Apr-20 09:30N 38°37' W 009°26'4 7.1
2018-Apr-20 09:00N 38°38' W 009°21'611.9
2018-Apr-20 08:30N 38°41' W 009°15'612.1
2018-Apr-20 08:00N 38°42' W 009°07'1 1.5
2018-Apr-20 07:25N 38°42' W 009°06'0 0.1
2018-Apr-20 06:58N 38°42' W 009°06'0 0.2
2018-Apr-20 06:19N 38°42' W 009°06'0 0.2
2018-Apr-20 05:49N 38°42' W 009°06'0 0.1
2018-Apr-20 05:28N 38°42' W 009°06'0 0.0
2018-Apr-20 04:58N 38°42' W 009°06'0 0.0
2018-Apr-20 04:28N 38°42' W 009°06'0 0.0
2018-Apr-20 03:58N 38°42' W 009°06'0 0.0
2018-Apr-20 03:28N 38°42' W 009°06'0 0.0
2018-Apr-20 02:58N 38°42' W 009°06'0 0.0
2018-Apr-20 02:28N 38°42' W 009°06'0 0.0
2018-Apr-20 01:58N 38°42' W 009°06'0 0.0
2018-Apr-20 01:28N 38°42' W 009°06'0 0.3
2018-Apr-20 00:58N 38°42' W 009°06'0 0.3
2018-Apr-20 00:28N 38°42' W 009°06'0 0.0
2018-Apr-19 23:58N 38°42' W 009°06'0 0.1
2018-Apr-19 23:25N 38°42' W 009°06'0 0.1
2018-Apr-19 22:58N 38°42' W 009°06'0 0.1
2018-Apr-19 22:28N 38°42' W 009°06'0 0.0
2018-Apr-19 21:58N 38°42' W 009°06'0 0.0
2018-Apr-19 21:28N 38°42' W 009°06'0 0.0
2018-Apr-19 20:58N 38°42' W 009°06'0 0.0
2018-Apr-19 20:25N 38°42' W 009°06'0 0.0
2018-Apr-19 19:58N 38°42' W 009°06'0 0.1
2018-Apr-19 19:28N 38°42' W 009°06'0 0.1
2018-Apr-19 18:58N 38°42' W 009°06'0 0.2
2018-Apr-19 18:28N 38°42' W 009°06'0 0.4
2018-Apr-19 17:58N 38°42' W 009°06'0 0.0
2018-Apr-19 17:28N 38°42' W 009°06'0 0.0
2018-Apr-19 16:55N 38°42' W 009°06'0 0.0
2018-Apr-19 16:25N 38°42' W 009°06'0 0.0
2018-Apr-19 15:55N 38°42' W 009°06'0 0.0
2018-Apr-19 15:28N 38°42' W 009°06'0 0.0
2018-Apr-19 14:58N 38°42' W 009°06'0 0.0
2018-Apr-19 14:25N 38°42' W 009°06'0 0.0
2018-Apr-19 13:58N 38°42' W 009°06'0 0.0
2018-Apr-19 13:28N 38°42' W 009°06'0 0.0
2018-Apr-19 12:58N 38°42' W 009°06'0 0.3
2018-Apr-19 12:28N 38°42' W 009°06'0 0.3
2018-Apr-19 11:55N 38°42' W 009°06'0 0.0
2018-Apr-19 11:28N 38°42' W 009°06'0 0.0
2018-Apr-19 10:52N 38°42' W 009°06'0 0.0
2018-Apr-19 10:28N 38°42' W 009°06'0 0.0
2018-Apr-19 09:58N 38°42' W 009°06'0 0.0
2018-Apr-19 09:28N 38°42' W 009°06'0 0.0
2018-Apr-19 08:58N 38°42' W 009°06'0 0.0
2018-Apr-19 08:25N 38°42' W 009°06'0 0.0
2018-Apr-19 07:58N 38°42' W 009°06'0 0.0
2018-Apr-19 07:28N 38°42' W 009°06'0 0.0
2018-Apr-19 06:58N 38°42' W 009°06'0 0.0
2018-Apr-19 06:28N 38°42' W 009°06'0 0.4
2018-Apr-19 05:55N 38°42' W 009°06'0 0.1
2018-Apr-19 05:28N 38°42' W 009°06'0 0.0
2018-Apr-19 04:58N 38°42' W 009°06'0 0.0
2018-Apr-19 04:28N 38°42' W 009°06'0 0.0
2018-Apr-19 03:58N 38°42' W 009°06'0 0.0
2018-Apr-19 03:28N 38°42' W 009°06'0 0.0
2018-Apr-19 02:58N 38°42' W 009°06'0 0.0
2018-Apr-19 02:28N 38°42' W 009°06'0 0.0
2018-Apr-19 01:58N 38°42' W 009°06'0 0.0
2018-Apr-19 01:28N 38°42' W 009°06'0 0.1
2018-Apr-19 00:58N 38°42' W 009°06'0 0.1
2018-Apr-19 00:25N 38°42' W 009°06'0 0.4
2018-Apr-18 23:58N 38°42' W 009°06'0 0.1
2018-Apr-18 23:25N 38°42' W 009°06'0 0.0
2018-Apr-18 22:58N 38°42' W 009°06'0 0.0
2018-Apr-18 22:28N 38°42' W 009°06'0 0.1
2018-Apr-18 21:58N 38°42' W 009°06'0 0.0
2018-Apr-18 21:16N 38°42' W 009°06'0 0.0
2018-Apr-18 20:52N 38°42' W 009°06'0 0.0
2018-Apr-18 20:28N 38°42' W 009°06'0 0.0
2018-Apr-18 19:58N 38°42' W 009°06'0 0.0
2018-Apr-18 19:28N 38°42' W 009°06'0 0.1
2018-Apr-18 18:55N 38°42' W 009°06'0 0.1
2018-Apr-18 18:28N 38°42' W 009°06'0 0.1
2018-Apr-18 17:58N 38°42' W 009°06'0 0.3
2018-Apr-18 17:28N 38°42' W 009°06'0 0.1
2018-Apr-18 16:58N 38°42' W 009°06'0 0.0
2018-Apr-18 16:28N 38°42' W 009°06'0 0.0
2018-Apr-18 15:58N 38°42' W 009°06'0 0.0
2018-Apr-18 15:28N 38°42' W 009°06'0 0.0
2018-Apr-18 14:58N 38°42' W 009°06'0 0.0
2018-Apr-18 14:28N 38°42' W 009°06'0 0.1
2018-Apr-18 13:58N 38°42' W 009°06'0 0.0
2018-Apr-18 13:28N 38°42' W 009°06'0 0.0
2018-Apr-18 12:58N 38°42' W 009°06'0 0.0
2018-Apr-18 12:28N 38°42' W 009°06'0 0.4
2018-Apr-18 11:58N 38°42' W 009°06'0 0.2
2018-Apr-18 11:28N 38°42' W 009°06'0 0.0
2018-Apr-18 10:58N 38°42' W 009°06'0 0.1
2018-Apr-18 10:28N 38°42' W 009°06'0 0.0
2018-Apr-18 09:58N 38°42' W 009°06'0 0.0
2018-Apr-18 09:28N 38°42' W 009°06'0 0.0
2018-Apr-18 08:58N 38°42' W 009°06'0 0.0
2018-Apr-18 08:28N 38°42' W 009°06'0 0.0
2018-Apr-18 07:58N 38°42' W 009°06'0 0.0
2018-Apr-18 07:28N 38°42' W 009°06'0 0.0
2018-Apr-18 06:55N 38°42' W 009°06'0 0.2
2018-Apr-18 06:28N 38°42' W 009°06'0 0.0
2018-Apr-18 05:55N 38°42' W 009°06'0 0.4
2018-Apr-18 05:28N 38°42' W 009°06'0 0.2
2018-Apr-18 04:58N 38°42' W 009°06'0 0.0
2018-Apr-18 04:28N 38°42' W 009°06'0 0.0
2018-Apr-18 03:58N 38°42' W 009°06'0 0.0
2018-Apr-18 03:28N 38°42' W 009°06'0 0.0
2018-Apr-18 02:58N 38°42' W 009°06'0 0.0
2018-Apr-18 02:28N 38°42' W 009°06'0 0.0
2018-Apr-18 01:52N 38°42' W 009°06'0 0.1
2018-Apr-18 01:28N 38°42' W 009°06'0 0.0
2018-Apr-18 00:58N 38°42' W 009°06'0 0.0
2018-Apr-18 00:28N 38°42' W 009°06'0 0.0
2018-Apr-17 23:58N 38°42' W 009°06'0 0.4
2018-Apr-17 23:28N 38°42' W 009°06'0 0.1
2018-Apr-17 22:58N 38°42' W 009°06'0 0.0
2018-Apr-17 22:28N 38°42' W 009°06'0 0.0
2018-Apr-17 21:58N 38°42' W 009°06'0 0.0
2018-Apr-17 21:25N 38°42' W 009°06'0 0.0
2018-Apr-17 20:58N 38°42' W 009°06'0 0.0
2018-Apr-17 20:22N 38°42' W 009°06'0 0.0
2018-Apr-17 19:58N 38°42' W 009°06'0 0.0
2018-Apr-17 19:28N 38°42' W 009°06'0 0.0
2018-Apr-17 18:58N 38°42' W 009°06'0 0.1
2018-Apr-17 18:28N 38°42' W 009°06'0 0.0
2018-Apr-17 17:55N 38°42' W 009°06'0 0.3
2018-Apr-17 17:28N 38°42' W 009°06'0 0.4
2018-Apr-17 16:58N 38°42' W 009°06'0 0.0
2018-Apr-17 16:25N 38°42' W 009°06'0 0.1
2018-Apr-17 15:55N 38°42' W 009°06'0 0.0
2018-Apr-17 15:19N 38°42' W 009°06'0 0.0
2018-Apr-17 14:58N 38°42' W 009°06'0 0.0
2018-Apr-17 14:28N 38°42' W 009°06'0 0.0
2018-Apr-17 13:55N 38°42' W 009°06'0 0.0
2018-Apr-17 13:28N 38°42' W 009°06'0 0.1
2018-Apr-17 12:58N 38°42' W 009°06'0 0.0
2018-Apr-17 12:28N 38°42' W 009°06'0 0.1
2018-Apr-17 11:58N 38°42' W 009°06'0 0.0
2018-Apr-17 11:28N 38°42' W 009°06'0 0.4
2018-Apr-17 10:58N 38°42' W 009°06'0 0.2
2018-Apr-17 10:25N 38°42' W 009°06'0 0.1
2018-Apr-17 09:55N 38°42' W 009°06'0 0.0
2018-Apr-17 09:25N 38°42' W 009°06'0 0.0
2018-Apr-17 08:58N 38°42' W 009°06'0 0.0
2018-Apr-17 08:28N 38°42' W 009°06'0 0.0
2018-Apr-17 07:58N 38°42' W 009°06'0 0.0
2018-Apr-17 07:28N 38°42' W 009°06'0 0.0
2018-Apr-17 06:58N 38°42' W 009°06'0 0.0
2018-Apr-17 06:28N 38°42' W 009°06'0 0.1
2018-Apr-17 05:58N 38°42' W 009°06'0 0.0
2018-Apr-17 05:28N 38°42' W 009°06'0 0.0
2018-Apr-17 04:58N 38°42' W 009°06'0 0.4
2018-Apr-17 04:28N 38°42' W 009°06'0 0.1
2018-Apr-17 03:58N 38°42' W 009°06'0 0.1
2018-Apr-17 03:28N 38°42' W 009°06'0 0.0
2018-Apr-17 02:58N 38°42' W 009°06'0 0.0
2018-Apr-17 02:28N 38°42' W 009°06'0 0.0
2018-Apr-17 01:58N 38°42' W 009°06'0 0.1
2018-Apr-17 01:28N 38°42' W 009°06'0 0.1
2018-Apr-17 00:58N 38°42' W 009°06'0 0.0
2018-Apr-17 00:28N 38°42' W 009°06'0 0.0
2018-Apr-16 23:58N 38°42' W 009°06'0 0.0
2018-Apr-16 23:28N 38°42' W 009°06'0 0.1
2018-Apr-16 22:58N 38°42' W 009°06'0 0.4
2018-Apr-16 22:28N 38°42' W 009°06'0 0.1
2018-Apr-16 21:58N 38°42' W 009°06'0 0.0
2018-Apr-16 21:28N 38°42' W 009°06'0 0.0
2018-Apr-16 20:58N 38°42' W 009°06'0 0.1
2018-Apr-16 20:28N 38°42' W 009°06'0 0.1
2018-Apr-16 19:55N 38°42' W 009°06'0 0.1
2018-Apr-16 19:28N 38°42' W 009°06'0 0.0
2018-Apr-16 18:58N 38°42' W 009°06'0 0.0
2018-Apr-16 18:16N 38°42' W 009°06'0 0.3
2018-Apr-16 17:55N 38°42' W 009°06'0 0.0
2018-Apr-16 17:28N 38°42' W 009°06'0 0.0
2018-Apr-16 16:58N 38°42' W 009°06'0 0.4
2018-Apr-16 16:28N 38°42' W 009°06'0 0.1
2018-Apr-16 15:58N 38°42' W 009°06'0 0.0
2018-Apr-16 15:25N 38°42' W 009°06'0 0.0
2018-Apr-16 14:58N 38°42' W 009°06'0 0.0
2018-Apr-16 14:28N 38°42' W 009°06'0 0.0
2018-Apr-16 13:55N 38°42' W 009°06'0 0.0
2018-Apr-16 13:28N 38°42' W 009°06'0 0.1
2018-Apr-16 12:55N 38°42' W 009°06'0 0.0
2018-Apr-16 12:28N 38°42' W 009°06'0 0.0
2018-Apr-16 11:55N 38°42' W 009°06'0 0.0
2018-Apr-16 11:28N 38°42' W 009°06'0 0.1
2018-Apr-16 10:58N 38°42' W 009°06'0 0.3
2018-Apr-16 10:25N 38°42' W 009°06'0 0.1
2018-Apr-16 09:58N 38°42' W 009°06'0 0.0
2018-Apr-16 09:28N 38°42' W 009°06'0 0.0
2018-Apr-16 08:58N 38°42' W 009°06'0 0.0
2018-Apr-16 08:28N 38°42' W 009°06'0 0.0
2018-Apr-16 07:58N 38°42' W 009°06'0 0.0
2018-Apr-16 07:28N 38°42' W 009°06'0 0.0
2018-Apr-16 06:55N 38°42' W 009°06'0 0.0
2018-Apr-16 06:25N 38°42' W 009°06'0 0.0
2018-Apr-16 05:58N 38°42' W 009°06'0 0.0
2018-Apr-16 05:28N 38°42' W 009°06'0 0.0
2018-Apr-16 04:58N 38°42' W 009°06'0 0.0
2018-Apr-16 04:28N 38°42' W 009°06'0 0.3
2018-Apr-16 03:55N 38°42' W 009°06'0 0.3
2018-Apr-16 03:28N 38°42' W 009°06'0 0.1
2018-Apr-16 02:58N 38°42' W 009°06'0 0.0
2018-Apr-16 02:28N 38°42' W 009°06'0 0.0
2018-Apr-16 01:46N 38°42' W 009°06'0 0.0
2018-Apr-16 01:28N 38°42' W 009°06'0 0.0
2018-Apr-16 00:52N 38°42' W 009°06'0 0.1
2018-Apr-16 00:25N 38°42' W 009°06'0 0.1
2018-Apr-15 23:58N 38°42' W 009°06'0 0.0
2018-Apr-15 23:28N 38°42' W 009°06'0 0.0
2018-Apr-15 22:58N 38°42' W 009°06'0 0.0
2018-Apr-15 22:28N 38°42' W 009°06'0 0.4
2018-Apr-15 21:58N 38°42' W 009°06'0 0.2
2018-Apr-15 21:28N 38°42' W 009°06'0 0.0
2018-Apr-15 20:58N 38°42' W 009°06'0 0.0
2018-Apr-15 20:28N 38°42' W 009°06'0 0.0
2018-Apr-15 19:58N 38°42' W 009°06'0 0.0
2018-Apr-15 19:25N 38°42' W 009°06'0 0.0
2018-Apr-15 18:58N 38°42' W 009°06'0 0.0
2018-Apr-15 18:28N 38°42' W 009°06'0 0.0
2018-Apr-15 17:58N 38°42' W 009°06'0 0.0
2018-Apr-15 17:28N 38°42' W 009°06'0 0.1
2018-Apr-15 16:55N 38°42' W 009°06'0 0.1
2018-Apr-15 16:28N 38°42' W 009°06'0 0.4
2018-Apr-15 15:58N 38°42' W 009°06'0 0.1
2018-Apr-15 15:28N 38°42' W 009°06'0 0.0
2018-Apr-15 14:55N 38°42' W 009°06'0 0.0
2018-Apr-15 14:28N 38°42' W 009°06'0 0.0
2018-Apr-15 13:58N 38°42' W 009°06'0 0.0
2018-Apr-15 13:28N 38°42' W 009°06'0 0.0
2018-Apr-15 12:55N 38°42' W 009°06'0 0.0
2018-Apr-15 12:25N 38°42' W 009°06'0 0.0
2018-Apr-15 11:58N 38°42' W 009°06'0 0.0
2018-Apr-15 11:28N 38°42' W 009°06'0 0.0
2018-Apr-15 10:58N 38°42' W 009°06'0 0.9
2018-Apr-15 10:31N 38°42' W 009°06'2 4.6
2018-Apr-15 10:00N 38°42' W 009°09'4 8.2
2018-Apr-15 09:30N 38°41' W 009°15'4 9.0
2018-Apr-15 09:01N 38°39' W 009°20'4 7.9
2018-Apr-15 08:30N 38°37' W 009°24'1 1.4
2018-Apr-15 08:00N 38°37' W 009°25'3 5.6
2018-Apr-15 07:30N 38°34' W 009°24'2 4.1
2018-Apr-15 07:00N 38°32' W 009°24'4 7.3
2018-Apr-15 06:30N 38°28' W 009°23'4 7.6
2018-Apr-15 06:00N 38°25' W 009°23'4 7.7
2018-Apr-15 05:31N 38°21' W 009°23'4 7.9
2018-Apr-15 05:00N 38°17' W 009°23'4 8.0
2018-Apr-15 04:31N 38°13' W 009°23'4 7.8
2018-Apr-15 04:00N 38°09' W 009°23'4 7.6
2018-Apr-15 03:31N 38°05' W 009°23'4 7.7
2018-Apr-15 03:01N 38°01' W 009°23'4 7.8
2018-Apr-15 02:30N 37°57' W 009°22'4 7.6
2018-Apr-15 02:01N 37°53' W 009°22'4 7.5
2018-Apr-15 01:31N 37°50' W 009°22'4 7.5
2018-Apr-15 01:00N 37°46' W 009°22'4 7.8
2018-Apr-15 00:30N 37°42' W 009°22'5 7.5
2018-Apr-14 23:51N 37°37' W 009°22'2 7.2
2018-Apr-14 23:30N 37°35' W 009°21'4 7.2
2018-Apr-14 22:57N 37°31' W 009°21'3 7.4
2018-Apr-14 22:31N 37°27' W 009°21'5 9.3
2018-Apr-14 21:56N 37°22' W 009°20'6 9.4
2018-Apr-14 21:19N 37°16' W 009°20'4 9.5
2018-Apr-14 20:52N 37°12' W 009°19'196 8.8
2018-Apr-13 22:33N 35°58' W 005°34'1 9.3
2018-Apr-13 22:27N 35°59' W 005°33'4 9.1
2018-Apr-13 22:01N 35°60' W 005°28'5 9.0
2018-Apr-13 21:30N 36°01' W 005°22'4 8.7
2018-Apr-13 21:01N 36°03' W 005°17'5 8.5
2018-Apr-13 20:27N 36°03' W 005°12'15 9.4
2018-Apr-13 18:51N 36°08' W 004°54'  
Track history (hours):
 
Tides and Currents Weather Stations Pressure Air Temp Water Temp Dewpoint Dewpoint Depression Visibility Wind Speed Wind Dir Waves Ship Positions

Hawk

Last reported at 2018-Apr-22 09:22 UTC. Time now 2018-Apr-22 16:29 UTC.
Position N 46°16' W 007°33'.

Length 223 m; draft 10.2 m.

Type: Cargo ship. MMSI: 259848000.

Date/timePositionNaut miles runAvg speedWind from/ knotsBaromVisibWave heightAir tempDewpointWater temp
2018-Apr-22 09:22N 46°16' W 007°33'41610.2
2018-Apr-20 16:43N 39°32' W 009°51'210.1
2018-Apr-20 16:31N 39°30' W 009°51'510.0
2018-Apr-20 16:00N 39°25' W 009°51'510.4
2018-Apr-20 15:31N 39°20' W 009°51'510.4
2018-Apr-20 15:00N 39°14' W 009°51'510.4
2018-Apr-20 14:30N 39°09' W 009°51'510.2
2018-Apr-20 14:00N 39°04' W 009°51'510.3
2018-Apr-20 13:30N 38°59' W 009°52'510.4
2018-Apr-20 13:01N 38°54' W 009°52'510.1
2018-Apr-20 12:30N 38°49' W 009°52'510.0
2018-Apr-20 12:00N 38°44' W 009°52'5 9.9
2018-Apr-20 11:30N 38°39' W 009°50'5 9.7
2018-Apr-20 11:00N 38°38' W 009°45'510.0
2018-Apr-20 10:30N 38°37' W 009°38'510.0
2018-Apr-20 10:00N 38°37' W 009°32'5 9.8
2018-Apr-20 09:30N 38°37' W 009°26'4 7.1
2018-Apr-20 09:00N 38°38' W 009°21'611.9
2018-Apr-20 08:30N 38°41' W 009°15'612.1
2018-Apr-20 08:00N 38°42' W 009°07'1 1.5
2018-Apr-20 07:25N 38°42' W 009°06'0 0.1
2018-Apr-20 06:58N 38°42' W 009°06'0 0.2
2018-Apr-20 06:19N 38°42' W 009°06'0 0.2
2018-Apr-20 05:49N 38°42' W 009°06'0 0.1
2018-Apr-20 05:28N 38°42' W 009°06'0 0.0
2018-Apr-20 04:58N 38°42' W 009°06'0 0.0
2018-Apr-20 04:28N 38°42' W 009°06'0 0.0
2018-Apr-20 03:58N 38°42' W 009°06'0 0.0
2018-Apr-20 03:28N 38°42' W 009°06'0 0.0
2018-Apr-20 02:58N 38°42' W 009°06'0 0.0
2018-Apr-20 02:28N 38°42' W 009°06'0 0.0
2018-Apr-20 01:58N 38°42' W 009°06'0 0.0
2018-Apr-20 01:28N 38°42' W 009°06'0 0.3
2018-Apr-20 00:58N 38°42' W 009°06'0 0.3
2018-Apr-20 00:28N 38°42' W 009°06'0 0.0
2018-Apr-19 23:58N 38°42' W 009°06'0 0.1
2018-Apr-19 23:25N 38°42' W 009°06'0 0.1
2018-Apr-19 22:58N 38°42' W 009°06'0 0.1
2018-Apr-19 22:28N 38°42' W 009°06'0 0.0
2018-Apr-19 21:58N 38°42' W 009°06'0 0.0
2018-Apr-19 21:28N 38°42' W 009°06'0 0.0
2018-Apr-19 20:58N 38°42' W 009°06'0 0.0
2018-Apr-19 20:25N 38°42' W 009°06'0 0.0
2018-Apr-19 19:58N 38°42' W 009°06'0 0.1
2018-Apr-19 19:28N 38°42' W 009°06'0 0.1
2018-Apr-19 18:58N 38°42' W 009°06'0 0.2
2018-Apr-19 18:28N 38°42' W 009°06'0 0.4
2018-Apr-19 17:58N 38°42' W 009°06'0 0.0
2018-Apr-19 17:28N 38°42' W 009°06'0 0.0
2018-Apr-19 16:55N 38°42' W 009°06'0 0.0
2018-Apr-19 16:25N 38°42' W 009°06'0 0.0
2018-Apr-19 15:55N 38°42' W 009°06'0 0.0
2018-Apr-19 15:28N 38°42' W 009°06'0 0.0
2018-Apr-19 14:58N 38°42' W 009°06'0 0.0
2018-Apr-19 14:25N 38°42' W 009°06'0 0.0
2018-Apr-19 13:58N 38°42' W 009°06'0 0.0
2018-Apr-19 13:28N 38°42' W 009°06'0 0.0
2018-Apr-19 12:58N 38°42' W 009°06'0 0.3
2018-Apr-19 12:28N 38°42' W 009°06'0 0.3
2018-Apr-19 11:55N 38°42' W 009°06'0 0.0
2018-Apr-19 11:28N 38°42' W 009°06'0 0.0
2018-Apr-19 10:52N 38°42' W 009°06'0 0.0
2018-Apr-19 10:28N 38°42' W 009°06'0 0.0
2018-Apr-19 09:58N 38°42' W 009°06'0 0.0
2018-Apr-19 09:28N 38°42' W 009°06'0 0.0
2018-Apr-19 08:58N 38°42' W 009°06'0 0.0
2018-Apr-19 08:25N 38°42' W 009°06'0 0.0
2018-Apr-19 07:58N 38°42' W 009°06'0 0.0
2018-Apr-19 07:28N 38°42' W 009°06'0 0.0
2018-Apr-19 06:58N 38°42' W 009°06'0 0.0
2018-Apr-19 06:28N 38°42' W 009°06'0 0.4
2018-Apr-19 05:55N 38°42' W 009°06'0 0.1
2018-Apr-19 05:28N 38°42' W 009°06'0 0.0
2018-Apr-19 04:58N 38°42' W 009°06'0 0.0
2018-Apr-19 04:28N 38°42' W 009°06'0 0.0
2018-Apr-19 03:58N 38°42' W 009°06'0 0.0
2018-Apr-19 03:28N 38°42' W 009°06'0 0.0
2018-Apr-19 02:58N 38°42' W 009°06'0 0.0
2018-Apr-19 02:28N 38°42' W 009°06'0 0.0
2018-Apr-19 01:58N 38°42' W 009°06'0 0.0
2018-Apr-19 01:28N 38°42' W 009°06'0 0.1
2018-Apr-19 00:58N 38°42' W 009°06'0 0.1
2018-Apr-19 00:25N 38°42' W 009°06'0 0.4
2018-Apr-18 23:58N 38°42' W 009°06'0 0.1
2018-Apr-18 23:25N 38°42' W 009°06'0 0.0
2018-Apr-18 22:58N 38°42' W 009°06'0 0.0
2018-Apr-18 22:28N 38°42' W 009°06'0 0.1
2018-Apr-18 21:58N 38°42' W 009°06'0 0.0
2018-Apr-18 21:16N 38°42' W 009°06'0 0.0
2018-Apr-18 20:52N 38°42' W 009°06'0 0.0
2018-Apr-18 20:28N 38°42' W 009°06'0 0.0
2018-Apr-18 19:58N 38°42' W 009°06'0 0.0
2018-Apr-18 19:28N 38°42' W 009°06'0 0.1
2018-Apr-18 18:55N 38°42' W 009°06'0 0.1
2018-Apr-18 18:28N 38°42' W 009°06'0 0.1
2018-Apr-18 17:58N 38°42' W 009°06'0 0.3
2018-Apr-18 17:28N 38°42' W 009°06'0 0.1
2018-Apr-18 16:58N 38°42' W 009°06'0 0.0
2018-Apr-18 16:28N 38°42' W 009°06'0 0.0
2018-Apr-18 15:58N 38°42' W 009°06'0 0.0
2018-Apr-18 15:28N 38°42' W 009°06'0 0.0
2018-Apr-18 14:58N 38°42' W 009°06'0 0.0
2018-Apr-18 14:28N 38°42' W 009°06'0 0.1
2018-Apr-18 13:58N 38°42' W 009°06'0 0.0
2018-Apr-18 13:28N 38°42' W 009°06'0 0.0
2018-Apr-18 12:58N 38°42' W 009°06'0 0.0
2018-Apr-18 12:28N 38°42' W 009°06'0 0.4
2018-Apr-18 11:58N 38°42' W 009°06'0 0.2
2018-Apr-18 11:28N 38°42' W 009°06'0 0.0
2018-Apr-18 10:58N 38°42' W 009°06'0 0.1
2018-Apr-18 10:28N 38°42' W 009°06'0 0.0
2018-Apr-18 09:58N 38°42' W 009°06'0 0.0
2018-Apr-18 09:28N 38°42' W 009°06'0 0.0
2018-Apr-18 08:58N 38°42' W 009°06'0 0.0
2018-Apr-18 08:28N 38°42' W 009°06'0 0.0
2018-Apr-18 07:58N 38°42' W 009°06'0 0.0
2018-Apr-18 07:28N 38°42' W 009°06'0 0.0
2018-Apr-18 06:55N 38°42' W 009°06'0 0.2
2018-Apr-18 06:28N 38°42' W 009°06'0 0.0
2018-Apr-18 05:55N 38°42' W 009°06'0 0.4
2018-Apr-18 05:28N 38°42' W 009°06'0 0.2
2018-Apr-18 04:58N 38°42' W 009°06'0 0.0
2018-Apr-18 04:28N 38°42' W 009°06'0 0.0
2018-Apr-18 03:58N 38°42' W 009°06'0 0.0
2018-Apr-18 03:28N 38°42' W 009°06'0 0.0
2018-Apr-18 02:58N 38°42' W 009°06'0 0.0
2018-Apr-18 02:28N 38°42' W 009°06'0 0.0
2018-Apr-18 01:52N 38°42' W 009°06'0 0.1
2018-Apr-18 01:28N 38°42' W 009°06'0 0.0
2018-Apr-18 00:58N 38°42' W 009°06'0 0.0
2018-Apr-18 00:28N 38°42' W 009°06'0 0.0
2018-Apr-17 23:58N 38°42' W 009°06'0 0.4
2018-Apr-17 23:28N 38°42' W 009°06'0 0.1
2018-Apr-17 22:58N 38°42' W 009°06'0 0.0
2018-Apr-17 22:28N 38°42' W 009°06'0 0.0
2018-Apr-17 21:58N 38°42' W 009°06'0 0.0
2018-Apr-17 21:25N 38°42' W 009°06'0 0.0
2018-Apr-17 20:58N 38°42' W 009°06'0 0.0
2018-Apr-17 20:22N 38°42' W 009°06'0 0.0
2018-Apr-17 19:58N 38°42' W 009°06'0 0.0
2018-Apr-17 19:28N 38°42' W 009°06'0 0.0
2018-Apr-17 18:58N 38°42' W 009°06'0 0.1
2018-Apr-17 18:28N 38°42' W 009°06'0 0.0
2018-Apr-17 17:55N 38°42' W 009°06'0 0.3
2018-Apr-17 17:28N 38°42' W 009°06'0 0.4
2018-Apr-17 16:58N 38°42' W 009°06'0 0.0
2018-Apr-17 16:25N 38°42' W 009°06'0 0.1
2018-Apr-17 15:55N 38°42' W 009°06'0 0.0
2018-Apr-17 15:19N 38°42' W 009°06'0 0.0
2018-Apr-17 14:58N 38°42' W 009°06'0 0.0
2018-Apr-17 14:28N 38°42' W 009°06'0 0.0
2018-Apr-17 13:55N 38°42' W 009°06'0 0.0
2018-Apr-17 13:28N 38°42' W 009°06'0 0.1
2018-Apr-17 12:58N 38°42' W 009°06'0 0.0
2018-Apr-17 12:28N 38°42' W 009°06'0 0.1
2018-Apr-17 11:58N 38°42' W 009°06'0 0.0
2018-Apr-17 11:28N 38°42' W 009°06'0 0.4
2018-Apr-17 10:58N 38°42' W 009°06'0 0.2
2018-Apr-17 10:25N 38°42' W 009°06'0 0.1
2018-Apr-17 09:55N 38°42' W 009°06'0 0.0
2018-Apr-17 09:25N 38°42' W 009°06'0 0.0
2018-Apr-17 08:58N 38°42' W 009°06'0 0.0
2018-Apr-17 08:28N 38°42' W 009°06'0 0.0
2018-Apr-17 07:58N 38°42' W 009°06'0 0.0
2018-Apr-17 07:28N 38°42' W 009°06'0 0.0
2018-Apr-17 06:58N 38°42' W 009°06'0 0.0
2018-Apr-17 06:28N 38°42' W 009°06'0 0.1
2018-Apr-17 05:58N 38°42' W 009°06'0 0.0
2018-Apr-17 05:28N 38°42' W 009°06'0 0.0
2018-Apr-17 04:58N 38°42' W 009°06'0 0.4
2018-Apr-17 04:28N 38°42' W 009°06'0 0.1
2018-Apr-17 03:58N 38°42' W 009°06'0 0.1
2018-Apr-17 03:28N 38°42' W 009°06'0 0.0
2018-Apr-17 02:58N 38°42' W 009°06'0 0.0
2018-Apr-17 02:28N 38°42' W 009°06'0 0.0
2018-Apr-17 01:58N 38°42' W 009°06'0 0.1
2018-Apr-17 01:28N 38°42' W 009°06'0 0.1
2018-Apr-17 00:58N 38°42' W 009°06'0 0.0
2018-Apr-17 00:28N 38°42' W 009°06'0 0.0
2018-Apr-16 23:58N 38°42' W 009°06'0 0.0
2018-Apr-16 23:28N 38°42' W 009°06'0 0.1
2018-Apr-16 22:58N 38°42' W 009°06'0 0.4
2018-Apr-16 22:28N 38°42' W 009°06'0 0.1
2018-Apr-16 21:58N 38°42' W 009°06'0 0.0
2018-Apr-16 21:28N 38°42' W 009°06'0 0.0
2018-Apr-16 20:58N 38°42' W 009°06'0 0.1
2018-Apr-16 20:28N 38°42' W 009°06'0 0.1
2018-Apr-16 19:55N 38°42' W 009°06'0 0.1
2018-Apr-16 19:28N 38°42' W 009°06'0 0.0
2018-Apr-16 18:58N 38°42' W 009°06'0 0.0
2018-Apr-16 18:16N 38°42' W 009°06'0 0.3
2018-Apr-16 17:55N 38°42' W 009°06'0 0.0
2018-Apr-16 17:28N 38°42' W 009°06'0 0.0
2018-Apr-16 16:58N 38°42' W 009°06'0 0.4
2018-Apr-16 16:28N 38°42' W 009°06'0 0.1
2018-Apr-16 15:58N 38°42' W 009°06'0 0.0
2018-Apr-16 15:25N 38°42' W 009°06'0 0.0
2018-Apr-16 14:58N 38°42' W 009°06'0 0.0
2018-Apr-16 14:28N 38°42' W 009°06'0 0.0
2018-Apr-16 13:55N 38°42' W 009°06'0 0.0
2018-Apr-16 13:28N 38°42' W 009°06'0 0.1
2018-Apr-16 12:55N 38°42' W 009°06'0 0.0
2018-Apr-16 12:28N 38°42' W 009°06'0 0.0
2018-Apr-16 11:55N 38°42' W 009°06'0 0.0
2018-Apr-16 11:28N 38°42' W 009°06'0 0.1
2018-Apr-16 10:58N 38°42' W 009°06'0 0.3
2018-Apr-16 10:25N 38°42' W 009°06'0 0.1
2018-Apr-16 09:58N 38°42' W 009°06'0 0.0
2018-Apr-16 09:28N 38°42' W 009°06'0 0.0
2018-Apr-16 08:58N 38°42' W 009°06'0 0.0
2018-Apr-16 08:28N 38°42' W 009°06'0 0.0
2018-Apr-16 07:58N 38°42' W 009°06'0 0.0
2018-Apr-16 07:28N 38°42' W 009°06'0 0.0
2018-Apr-16 06:55N 38°42' W 009°06'0 0.0
2018-Apr-16 06:25N 38°42' W 009°06'0 0.0
2018-Apr-16 05:58N 38°42' W 009°06'0 0.0
2018-Apr-16 05:28N 38°42' W 009°06'0 0.0
2018-Apr-16 04:58N 38°42' W 009°06'0 0.0
2018-Apr-16 04:28N 38°42' W 009°06'0 0.3
2018-Apr-16 03:55N 38°42' W 009°06'0 0.3
2018-Apr-16 03:28N 38°42' W 009°06'0 0.1
2018-Apr-16 02:58N 38°42' W 009°06'0 0.0
2018-Apr-16 02:28N 38°42' W 009°06'0 0.0
2018-Apr-16 01:46N 38°42' W 009°06'0 0.0
2018-Apr-16 01:28N 38°42' W 009°06'0 0.0
2018-Apr-16 00:52N 38°42' W 009°06'0 0.1
2018-Apr-16 00:25N 38°42' W 009°06'0 0.1
2018-Apr-15 23:58N 38°42' W 009°06'0 0.0
2018-Apr-15 23:28N 38°42' W 009°06'0 0.0
2018-Apr-15 22:58N 38°42' W 009°06'0 0.0
2018-Apr-15 22:28N 38°42' W 009°06'0 0.4
2018-Apr-15 21:58N 38°42' W 009°06'0 0.2
2018-Apr-15 21:28N 38°42' W 009°06'0 0.0
2018-Apr-15 20:58N 38°42' W 009°06'0 0.0
2018-Apr-15 20:28N 38°42' W 009°06'0 0.0
2018-Apr-15 19:58N 38°42' W 009°06'0 0.0
2018-Apr-15 19:25N 38°42' W 009°06'0 0.0
2018-Apr-15 18:58N 38°42' W 009°06'0 0.0
2018-Apr-15 18:28N 38°42' W 009°06'0 0.0
2018-Apr-15 17:58N 38°42' W 009°06'0 0.0
2018-Apr-15 17:28N 38°42' W 009°06'0 0.1
2018-Apr-15 16:55N 38°42' W 009°06'0 0.1
2018-Apr-15 16:28N 38°42' W 009°06'0 0.4
2018-Apr-15 15:58N 38°42' W 009°06'0 0.1
2018-Apr-15 15:28N 38°42' W 009°06'0 0.0
2018-Apr-15 14:55N 38°42' W 009°06'0 0.0
2018-Apr-15 14:28N 38°42' W 009°06'0 0.0
2018-Apr-15 13:58N 38°42' W 009°06'0 0.0
2018-Apr-15 13:28N 38°42' W 009°06'0 0.0
2018-Apr-15 12:55N 38°42' W 009°06'0 0.0
2018-Apr-15 12:25N 38°42' W 009°06'0 0.0
2018-Apr-15 11:58N 38°42' W 009°06'0 0.0
2018-Apr-15 11:28N 38°42' W 009°06'0 0.0
2018-Apr-15 10:58N 38°42' W 009°06'0 0.9
2018-Apr-15 10:31N 38°42' W 009°06'2 4.6
2018-Apr-15 10:00N 38°42' W 009°09'4 8.2
2018-Apr-15 09:30N 38°41' W 009°15'4 9.0
2018-Apr-15 09:01N 38°39' W 009°20'4 7.9
2018-Apr-15 08:30N 38°37' W 009°24'1 1.4
2018-Apr-15 08:00N 38°37' W 009°25'3 5.6
2018-Apr-15 07:30N 38°34' W 009°24'2 4.1
2018-Apr-15 07:00N 38°32' W 009°24'4 7.3
2018-Apr-15 06:30N 38°28' W 009°23'4 7.6
2018-Apr-15 06:00N 38°25' W 009°23'4 7.7
2018-Apr-15 05:31N 38°21' W 009°23'4 7.9
2018-Apr-15 05:00N 38°17' W 009°23'4 8.0
2018-Apr-15 04:31N 38°13' W 009°23'4 7.8
2018-Apr-15 04:00N 38°09' W 009°23'4 7.6
2018-Apr-15 03:31N 38°05' W 009°23'4 7.7
2018-Apr-15 03:01N 38°01' W 009°23'4 7.8
2018-Apr-15 02:30N 37°57' W 009°22'4 7.6
2018-Apr-15 02:01N 37°53' W 009°22'4 7.5
2018-Apr-15 01:31N 37°50' W 009°22'4 7.5
2018-Apr-15 01:00N 37°46' W 009°22'4 7.8
2018-Apr-15 00:30N 37°42' W 009°22'5 7.5
2018-Apr-14 23:51N 37°37' W 009°22'2 7.2
2018-Apr-14 23:30N 37°35' W 009°21'4 7.2
2018-Apr-14 22:57N 37°31' W 009°21'3 7.4
2018-Apr-14 22:31N 37°27' W 009°21'5 9.3
2018-Apr-14 21:56N 37°22' W 009°20'6 9.4
2018-Apr-14 21:19N 37°16' W 009°20'4 9.5
2018-Apr-14 20:52N 37°12' W 009°19'196 8.8
2018-Apr-13 22:33N 35°58' W 005°34'1 9.3
2018-Apr-13 22:27N 35°59' W 005°33'4 9.1
2018-Apr-13 22:01N 35°60' W 005°28'5 9.0
2018-Apr-13 21:30N 36°01' W 005°22'4 8.7
2018-Apr-13 21:01N 36°03' W 005°17'5 8.5
2018-Apr-13 20:27N 36°03' W 005°12'15 9.4
2018-Apr-13 18:51N 36°08' W 004°54'  

Dump ship's entire track history